Saturday, October 20, 2018, 10:17 PM EDT
Back to Local

KMLT, Millinocket Municipal Airport

Location: Millinocket, ME, United States Lat: 45.65
Local Time: 10:17 PM EDT ( 2:17 GMT) Lon: -68.7
Time Zone: US/Eastern Elev: 406 ft

Show me the last for .
Show Coded

Time T Td Feel RH Dir Speed Gust Alt SLP Vis Weather Sky Remarks
2018-10-20 21:53 47 31 44 53 260° 6 - 29.52 29.54 10 CLR None
2018-10-20 20:53 50 29 48 43 280° 5 - 29.51 29.53 10 CLR None
2018-10-20 19:53 52 28 - 39 310° 10 - 29.49 29.50 10 CLR 6-hr Min Temp (8pm): 52.0°F
6-hr Max Temp (8pm): 62.1°F
2018-10-20 18:53 54 30 - 39 290° 7 17 29.48 29.50 10 CLR None
2018-10-20 17:53 57 32 - 38 280° 8 - 29.45 29.47 10 FEW080 None
2018-10-20 16:53 60 36 - 40 240° 3 - 29.42 29.44 10 FEW075 None
2018-10-20 15:53 60 35 - 39 Variable 6 17 29.42 29.44 10 BKN070 None
2018-10-20 14:53 62 38 - 40 250° 10 17 29.43 29.44 10 FEW060 SCT075 None
2018-10-20 13:53 59 41 - 51 Variable 6 - 29.43 29.44 10 FEW046 SCT055 OVC070 6-hr Precip Total (2pm): 0.00"
6-hr Min Temp (2pm): 48.0°F
6-hr Max Temp (2pm): 60.1°F
2018-10-20 12:53 57 41 - 54 Variable 3 - 29.44 29.46 10 SCT049 BKN060 None
2018-10-20 11:53 55 42 - 61 - - - 29.46 29.48 10 FEW050 BKN090 BKN120 1-hr Precip Total: Trace
2018-10-20 11:03 52 42 - 68 Variable 5 - 29.48 - 10 -RA SCT027 OVC060 1-hr Precip Total: Trace
2018-10-20 10:53 52 41 - 66 Variable 3 - 29.49 29.51 10 BKN027 OVC060 6-hr Precip Total (11am): 0.00"
2018-10-20 09:53 51 41 - 68 Variable 5 - 29.51 29.53 10 SCT029 BKN075 OVC095 1-hr Precip Total: Trace
2018-10-20 08:53 48 40 47 73 Variable 3 - 29.51 29.53 10 -RA BKN080 1-hr Precip Total: Trace
2018-10-20 07:53 48 37 46 65 Variable 5 - 29.54 29.55 10 OVC080 1-hr Precip Total: Trace
6-hr Precip Total (8am): 0.00"
6-hr Min Temp (8am): 44.1°F
6-hr Max Temp (8am): 48.0°F
2018-10-20 06:53 47 37 46 68 Variable 3 - 29.54 29.56 10 FEW070 OVC090 None
2018-10-20 05:53 47 39 44 73 Variable 6 - 29.55 29.57 10 OVC100 None
2018-10-20 04:53 46 41 44 82 Variable 5 - 29.56 29.58 10 BKN110 None
2018-10-20 03:53 45 40 44 82 Variable 3 - 29.60 29.62 10 BKN110 None
2018-10-20 02:53 44 39 - 82 - Calm - 29.63 29.65 10 CLR None
2018-10-20 01:53 44 38 42 78 Variable 5 - 29.68 29.70 10 FEW110 6-hr Min Temp (2am): 43.0°F
6-hr Max Temp (2am): 45.0°F
2018-10-20 00:53 44 38 43 78 160° 3 - 29.72 29.74 10 SCT120 24-hr Min Temp (1am): 30.9°F
24-hr Max Temp (1am): 50.0°F
2018-10-19 23:53 44 37 41 76 Variable 6 - 29.73 29.75 10 CLR None
2018-10-19 22:53 44 36 42 72 170° 5 - 29.77 29.79 10 SCT120 Pressure falling rapidly

Support USWX by starting your Amazon purchase here.